Terminal Aerodrome Forecast
Issued by NWS

Home | Current Version | Previous Version | Text Only | Print | Product List | Glossary On
Versions: 1 2 3 4 5 6 7 8 9 10 11 12 13 14 15 16 17 18 19 20 21 22 23 24 25 26 27 28 29
129
FTUS41 KBOX 082328
TAFFMH
TAF
KFMH 082328Z 0900/0924 36014G30KT 1/2SM -SN BLSN OVC003
     FM090300 36011G27KT 2SM -SN OVC010
     FM090600 36010G21KT P6SM OVC015
     FM090900 36009KT P6SM OVC020=

USA.gov is the U.S. government's official web portal to all federal, state and local government web resources and services.